Time;durP1;ratioP1;P1;durP2;ratioP2;P2;SDS_P1;SDS_P2;PMS_P1;PMS_P2;Temp;Humidity;BMP_temperature;BMP_pressure;BME280_temperature;BME280_humidity;BME280_pressure;Samples;Min_cycle;Max_cycle;Signal;HPM_P1;HPM_P2
2022/05/18 00:01:56;;;;;;;3.28;1.48;;;;;;;;;;10028381;28;20070;-64
2022/05/18 00:06:53;;;;;;;3.22;1.00;;;;;;;;;;9983102;29;20072;-63
2022/05/18 00:11:49;;;;;;;5.57;1.23;;;;;;;;;;9988635;28;20054;-64
2022/05/18 00:16:45;;;;;;;3.85;1.42;;;;;;;;;;9975528;29;20151;-63
2022/05/18 00:21:42;;;;;;;4.68;1.25;;;;;;;;;;9969429;29;20544;-64
2022/05/18 00:26:38;;;;;;;3.08;0.90;;;;;;;;;;9984320;28;20079;-64
2022/05/18 00:31:34;;;;;;;4.22;0.73;;;;;;;;;;9970139;28;20080;-63
2022/05/18 00:36:31;;;;;;;3.78;1.33;;;;;;;;;;9978578;29;20098;-64
2022/05/18 00:41:27;;;;;;;2.90;1.00;;;;;;;;;;10004486;28;20046;-64
2022/05/18 00:46:24;;;;;;;3.63;0.73;;;;;;;;;;9978074;28;20425;-64
2022/05/18 00:51:24;;;;;;;2.03;0.60;;;;;;;;;;9984481;28;20462;-63
2022/05/18 00:56:23;;;;;;;4.50;1.17;;;;;;;;;;9973466;29;20114;-64
2022/05/18 01:01:19;;;;;;;4.13;0.70;;;;;;;;;;10028393;28;20087;-63
2022/05/18 01:06:23;;;;;;;3.92;0.90;;;;;;;;;;10055756;28;20048;-63
2022/05/18 01:11:20;;;;;;;4.50;0.80;;;;;;;;;;9999752;29;20079;-65
2022/05/18 01:16:16;;;;;;;4.70;0.60;;;;;;;;;;9983529;28;20466;-65
2022/05/18 01:21:13;;;;;;;2.92;0.88;;;;;;;;;;9970850;29;20048;-64
2022/05/18 01:26:13;;;;;;;2.55;0.73;;;;;;;;;;9997958;28;20084;-63
2022/05/18 01:31:09;;;;;;;4.05;0.73;;;;;;;;;;9992569;28;20060;-63
2022/05/18 01:36:06;;;;;;;3.20;0.65;;;;;;;;;;9996570;28;20123;-64
2022/05/18 01:41:16;;;;;;;5.35;0.80;;;;;;;;;;10001277;29;20122;-64
2022/05/18 01:46:14;;;;;;;11.77;1.00;;;;;;;;;;9992092;28;20071;-64
2022/05/18 01:51:13;;;;;;;4.18;0.80;;;;;;;;;;9988396;28;20115;-64
2022/05/18 01:56:09;;;;;;;6.20;0.90;;;;;;;;;;9986598;28;20087;-64
2022/05/18 02:01:05;;;;;;;3.80;0.60;;;;;;;;;;9980352;28;20044;-65
2022/05/18 02:06:02;;;;;;;1.73;0.60;;;;;;;;;;9992051;29;20059;-64
2022/05/18 02:10:58;;;;;;;4.18;1.10;;;;;;;;;;9984815;28;20143;-63
2022/05/18 02:15:54;;;;;;;4.60;0.75;;;;;;;;;;10016357;28;20079;-64
2022/05/18 02:20:51;;;;;;;7.13;0.70;;;;;;;;;;9976936;28;20439;-65
2022/05/18 02:25:47;;;;;;;3.22;0.80;;;;;;;;;;10050912;28;20043;-66
2022/05/18 02:30:43;;;;;;;9.20;0.80;;;;;;;;;;10118860;28;20135;-64
2022/05/18 02:35:41;;;;;;;7.25;0.82;;;;;;;;;;10066242;28;20074;-64
2022/05/18 02:40:37;;;;;;;2.13;0.60;;;;;;;;;;10046959;28;20076;-65
2022/05/18 02:45:33;;;;;;;2.60;0.75;;;;;;;;;;9981648;28;20095;-64
2022/05/18 02:50:30;;;;;;;3.45;0.82;;;;;;;;;;9978148;29;20079;-64
2022/05/18 03:00:41;;;;;;;3.05;0.98;;;;;;;;;;9983004;29;20490;-64
2022/05/18 03:05:37;;;;;;;2.88;0.65;;;;;;;;;;9985752;28;20099;-64
2022/05/18 03:10:34;;;;;;;5.78;0.85;;;;;;;;;;9988776;29;20487;-63
2022/05/18 03:15:30;;;;;;;8.80;1.58;;;;;;;;;;9959074;28;20072;-65
2022/05/18 03:23:33;;;;;;;3.65;0.68;;;;;;;;;;9969357;28;20084;-65
2022/05/18 03:25:42;;;;;;;3.13;0.75;;;;;;;;;;9960724;28;20083;-64
2022/05/18 03:30:39;;;;;;;2.47;0.70;;;;;;;;;;9969155;28;20098;-65
2022/05/18 03:35:36;;;;;;;7.70;1.50;;;;;;;;;;9963707;28;20048;-63
2022/05/18 03:40:35;;;;;;;3.63;0.70;;;;;;;;;;9969085;28;20040;-63
2022/05/18 03:45:33;;;;;;;5.63;1.10;;;;;;;;;;9977284;28;20519;-65
2022/05/18 03:50:30;;;;;;;2.20;0.80;;;;;;;;;;9983869;29;20388;-65
2022/05/18 03:55:26;;;;;;;4.40;1.02;;;;;;;;;;9975799;28;20421;-66
2022/05/18 04:00:23;;;;;;;2.95;1.02;;;;;;;;;;9973132;28;20052;-64
2022/05/18 04:05:20;;;;;;;4.63;1.02;;;;;;;;;;9976943;28;20052;-64
2022/05/18 04:10:17;;;;;;;3.78;0.95;;;;;;;;;;9980691;28;20048;-64
2022/05/18 04:15:16;;;;;;;5.70;1.20;;;;;;;;;;9982734;28;20123;-64
2022/05/18 04:20:14;;;;;;;4.28;1.00;;;;;;;;;;9986455;28;20059;-63
2022/05/18 04:25:11;;;;;;;5.00;1.20;;;;;;;;;;9975585;28;20470;-63
2022/05/18 04:30:08;;;;;;;7.10;1.35;;;;;;;;;;9961257;28;20083;-64
2022/05/18 04:35:05;;;;;;;4.63;1.17;;;;;;;;;;9954877;28;20127;-63
2022/05/18 04:40:03;;;;;;;8.05;1.50;;;;;;;;;;9969343;28;20092;-64
2022/05/18 04:45:00;;;;;;;4.35;1.10;;;;;;;;;;9971116;28;20076;-64
2022/05/18 04:49:57;;;;;;;4.72;1.10;;;;;;;;;;9964026;28;20123;-63
2022/05/18 04:54:53;;;;;;;10.30;1.30;;;;;;;;;;9957051;28;20106;-63
2022/05/18 04:59:50;;;;;;;4.20;1.20;;;;;;;;;;9968380;28;20095;-63
2022/05/18 05:04:46;;;;;;;4.35;1.40;;;;;;;;;;9958531;28;20107;-63
2022/05/18 05:09:43;;;;;;;4.70;1.10;;;;;;;;;;9976590;28;20037;-65
2022/05/18 05:14:40;;;;;;;3.95;1.30;;;;;;;;;;9968299;28;20220;-66
2022/05/18 05:19:37;;;;;;;6.38;2.08;;;;;;;;;;9951758;29;20130;-66
2022/05/18 05:24:33;;;;;;;9.75;1.30;;;;;;;;;;9952093;28;20052;-65
2022/05/18 05:29:29;;;;;;;5.55;1.58;;;;;;;;;;9949871;28;20170;-65
2022/05/18 05:34:26;;;;;;;6.97;1.25;;;;;;;;;;9955136;28;20072;-65
2022/05/18 05:39:22;;;;;;;2.65;1.08;;;;;;;;;;9951211;28;20072;-65
2022/05/18 05:44:18;;;;;;;5.15;1.63;;;;;;;;;;9955463;28;20152;-65
2022/05/18 05:49:14;;;;;;;4.85;1.75;;;;;;;;;;9974850;28;20079;-65
2022/05/18 05:54:11;;;;;;;4.57;1.55;;;;;;;;;;9960348;28;20055;-66
2022/05/18 05:59:07;;;;;;;3.60;1.40;;;;;;;;;;10084076;28;20044;-66
2022/05/18 06:04:07;;;;;;;4.38;1.50;;;;;;;;;;9963124;28;20044;-65
2022/05/18 06:09:07;;;;;;;5.78;1.48;;;;;;;;;;10005487;28;20140;-66
2022/05/18 06:14:04;;;;;;;4.95;1.63;;;;;;;;;;9999289;28;20054;-66
2022/05/18 06:19:01;;;;;;;4.82;1.52;;;;;;;;;;10030468;28;20502;-66
2022/05/18 06:23:57;;;;;;;5.20;2.15;;;;;;;;;;9991305;28;20565;-65
2022/05/18 06:28:54;;;;;;;4.88;2.03;;;;;;;;;;9999375;28;20087;-66
2022/05/18 06:33:50;;;;;;;4.97;2.08;;;;;;;;;;9960556;28;20044;-65
2022/05/18 06:38:46;;;;;;;5.93;2.50;;;;;;;;;;10025878;28;20147;-66
2022/05/18 06:43:43;;;;;;;5.25;2.22;;;;;;;;;;9983947;28;20053;-65
2022/05/18 06:48:42;;;;;;;4.50;2.45;;;;;;;;;;10169902;28;20047;-65
2022/05/18 06:53:42;;;;;;;6.38;2.63;;;;;;;;;;10096477;28;20131;-66
2022/05/18 06:58:38;;;;;;;6.03;2.33;;;;;;;;;;10048099;28;20152;-65
2022/05/18 07:03:35;;;;;;;5.05;2.10;;;;;;;;;;9982048;28;20045;-66
2022/05/18 07:08:31;;;;;;;8.25;2.95;;;;;;;;;;10004511;28;20076;-67
2022/05/18 07:13:28;;;;;;;4.88;2.83;;;;;;;;;;9954678;28;20047;-66
2022/05/18 07:18:30;;;;;;;6.05;2.60;;;;;;;;;;10081854;28;20042;-66
2022/05/18 07:23:27;;;;;;;6.32;2.75;;;;;;;;;;9999340;28;20079;-66
2022/05/18 07:28:23;;;;;;;5.70;2.70;;;;;;;;;;9983604;28;20098;-66
2022/05/18 07:33:20;;;;;;;10.13;3.60;;;;;;;;;;9964740;28;20143;-67
2022/05/18 07:38:24;;;;;;;7.18;3.13;;;;;;;;;;10023857;28;20135;-66
2022/05/18 07:43:36;;;;;;;6.88;2.75;;;;;;;;;;9979353;28;20080;-66
2022/05/18 07:48:33;;;;;;;9.93;2.95;;;;;;;;;;10013446;28;20423;-66
2022/05/18 07:53:29;;;;;;;6.22;3.65;;;;;;;;;;9953564;28;20087;-66
2022/05/18 07:58:26;;;;;;;6.68;3.30;;;;;;;;;;10001023;28;20083;-66
2022/05/18 08:03:22;;;;;;;7.32;3.33;;;;;;;;;;9955731;28;20107;-66
2022/05/18 08:08:20;;;;;;;10.55;3.40;;;;;;;;;;10003870;28;20140;-66
2022/05/18 08:18:31;;;;;;;6.60;3.10;;;;;;;;;;10006144;28;20050;-66
2022/05/18 08:23:27;;;;;;;6.63;3.30;;;;;;;;;;9956027;28;20630;-66
2022/05/18 08:28:24;;;;;;;4.80;3.08;;;;;;;;;;10022483;28;20465;-67
2022/05/18 08:33:20;;;;;;;7.55;3.25;;;;;;;;;;9992583;28;20102;-67
2022/05/18 08:38:17;;;;;;;8.43;3.75;;;;;;;;;;9973230;28;20079;-66
2022/05/18 08:43:31;;;;;;;9.25;3.47;;;;;;;;;;9967378;28;20486;-67
2022/05/18 08:48:39;;;;;;;7.30;4.20;;;;;;;;;;10013499;28;20048;-67
2022/05/18 08:53:44;;;;;;;5.90;3.83;;;;;;;;;;9962572;28;20467;-67
2022/05/18 08:58:43;;;;;;;7.82;4.35;;;;;;;;;;10090645;28;20109;-67
2022/05/18 09:03:42;;;;;;;7.00;3.72;;;;;;;;;;9960342;28;20114;-67
2022/05/18 09:08:40;;;;;;;7.15;3.75;;;;;;;;;;10021148;28;20204;-66
2022/05/18 09:13:40;;;;;;;7.75;4.55;;;;;;;;;;9956030;28;20044;-67
2022/05/18 09:18:58;;;;;;;8.32;4.68;;;;;;;;;;10112494;28;20129;-67
2022/05/18 09:24:15;;;;;;;8.27;3.97;;;;;;;;;;9961255;28;20049;-67
2022/05/18 09:29:44;;;;;;;8.52;4.47;;;;;;;;;;10020254;28;20053;-67
2022/05/18 09:35:00;;;;;;;9.15;5.03;;;;;;;;;;10037076;28;20052;-66
2022/05/18 09:40:04;;;;;;;8.80;4.95;;;;;;;;;;9977345;28;20067;-67
2022/05/18 09:45:10;;;;;;;9.93;4.68;;;;;;;;;;10005363;28;20524;-67
2022/05/18 09:50:08;;;;;;;10.77;4.68;;;;;;;;;;10148344;28;20062;-68
2022/05/18 09:55:05;;;;;;;6.53;4.65;;;;;;;;;;10079097;28;20494;-67
2022/05/18 10:00:07;;;;;;;8.18;4.60;;;;;;;;;;9992715;28;20570;-67
2022/05/18 10:10:25;;;;;;;8.63;5.20;;;;;;;;;;9956907;28;20062;-67
2022/05/18 10:15:22;;;;;;;7.40;4.25;;;;;;;;;;10018640;28;20568;-68
2022/05/18 10:20:25;;;;;;;9.38;5.38;;;;;;;;;;10079788;28;20198;-67
2022/05/18 10:25:24;;;;;;;8.90;4.38;;;;;;;;;;10026243;28;20047;-67
2022/05/18 10:30:25;;;;;;;7.00;4.80;;;;;;;;;;9977750;28;20049;-66
2022/05/18 10:35:34;;;;;;;8.20;4.73;;;;;;;;;;9967284;28;20095;-67
2022/05/18 10:40:30;;;;;;;8.20;4.18;;;;;;;;;;9987426;28;20056;-65
2022/05/18 10:45:27;;;;;;;7.53;4.57;;;;;;;;;;10009325;28;20513;-67
2022/05/18 10:50:24;;;;;;;8.50;4.18;;;;;;;;;;9993920;28;20576;-67
2022/05/18 10:55:22;;;;;;;7.57;3.92;;;;;;;;;;9974060;28;20143;-67
2022/05/18 11:00:22;;;;;;;5.15;3.90;;;;;;;;;;10153774;28;20054;-67
2022/05/18 11:05:25;;;;;;;5.93;3.75;;;;;;;;;;10034042;28;20053;-67
2022/05/18 11:10:24;;;;;;;10.48;4.30;;;;;;;;;;9993208;28;20226;-67
2022/05/18 11:15:26;;;;;;;7.22;3.55;;;;;;;;;;9997944;28;20061;-67
2022/05/18 11:20:44;;;;;;;8.35;4.70;;;;;;;;;;10098882;28;20115;-67
2022/05/18 11:25:43;;;;;;;8.10;4.28;;;;;;;;;;10006204;28;20073;-67
2022/05/18 11:31:20;;;;;;;7.55;4.40;;;;;;;;;;9977337;28;20064;-67
2022/05/18 11:36:23;;;;;;;6.25;4.82;;;;;;;;;;10011410;28;20071;-67
2022/05/18 11:41:20;;;;;;;8.60;4.75;;;;;;;;;;9979703;28;20068;-67
2022/05/18 11:46:38;;;;;;;7.80;4.75;;;;;;;;;;10023411;28;20044;-67
2022/05/18 11:51:44;;;;;;;6.47;4.95;;;;;;;;;;9990498;28;20040;-66
2022/05/18 11:56:40;;;;;;;7.28;4.50;;;;;;;;;;9985134;28;20060;-68
2022/05/18 12:01:48;;;;;;;8.38;4.43;;;;;;;;;;9991189;28;20060;-68
2022/05/18 12:06:55;;;;;;;8.55;4.60;;;;;;;;;;10019616;28;20055;-68
2022/05/18 12:12:11;;;;;;;7.47;4.60;;;;;;;;;;10001877;28;20064;-69
2022/05/18 12:17:13;;;;;;;7.03;4.30;;;;;;;;;;10100932;28;20500;-66
2022/05/18 12:22:15;;;;;;;6.90;3.72;;;;;;;;;;10028192;28;20049;-67
2022/05/18 12:27:12;;;;;;;7.00;4.28;;;;;;;;;;10012819;28;20060;-68
2022/05/18 12:32:11;;;;;;;7.50;3.60;;;;;;;;;;9969116;28;20052;-68
2022/05/18 12:37:27;;;;;;;6.40;4.13;;;;;;;;;;10012373;28;20044;-68
2022/05/18 12:42:27;;;;;;;6.80;3.40;;;;;;;;;;9969246;28;20095;-65
2022/05/18 12:47:39;;;;;;;6.78;3.80;;;;;;;;;;10015602;28;20472;-66
2022/05/18 12:52:42;;;;;;;7.10;3.50;;;;;;;;;;9951612;28;20102;-66
2022/05/18 12:57:41;;;;;;;6.55;3.30;;;;;;;;;;9975002;28;20183;-68
2022/05/18 13:02:42;;;;;;;6.43;3.35;;;;;;;;;;9989879;28;20075;-66
2022/05/18 13:07:41;;;;;;;6.13;3.20;;;;;;;;;;10017023;28;20056;-68
2022/05/18 13:12:39;;;;;;;5.72;3.15;;;;;;;;;;9974716;28;20092;-69
2022/05/18 13:17:45;;;;;;;6.25;3.17;;;;;;;;;;10053227;28;20042;-68
2022/05/18 13:22:47;;;;;;;7.72;3.30;;;;;;;;;;10004579;28;20057;-67
2022/05/18 13:27:43;;;;;;;;;;;;;;;;;;10127615;28;20046;-66
2022/05/18 13:32:41;;;;;;;7.00;3.75;;;;;;;;;;10031760;28;19923;-67
2022/05/18 13:37:37;;;;;;;6.25;3.45;;;;;;;;;;10020066;28;20098;-68
2022/05/18 13:42:49;;;;;;;6.63;3.45;;;;;;;;;;9965669;28;20055;-67
2022/05/18 13:47:47;;;;;;;6.65;3.13;;;;;;;;;;10000250;28;20095;-68
2022/05/18 13:52:44;;;;;;;6.47;3.35;;;;;;;;;;9950666;28;20045;-68
2022/05/18 13:57:45;;;;;;;6.00;3.10;;;;;;;;;;9980229;28;20040;-68
2022/05/18 14:02:47;;;;;;;7.97;3.13;;;;;;;;;;10044552;28;20557;-68
2022/05/18 14:07:45;;;;;;;6.53;3.30;;;;;;;;;;10005242;28;20080;-68
2022/05/18 14:13:02;;;;;;;5.75;2.45;;;;;;;;;;9956333;28;20049;-68
2022/05/18 14:17:59;;;;;;;6.28;2.83;;;;;;;;;;10008768;28;20048;-70
2022/05/18 14:22:59;;;;;;;6.15;2.63;;;;;;;;;;9963636;28;20045;-68
2022/05/18 14:27:58;;;;;;;5.32;2.50;;;;;;;;;;10021738;28;20091;-67
2022/05/18 14:32:57;;;;;;;6.28;2.55;;;;;;;;;;9997485;28;20074;-65
2022/05/18 14:37:57;;;;;;;7.13;3.22;;;;;;;;;;10021992;28;20060;-66
2022/05/18 14:42:54;;;;;;;3.50;1.90;;;;;;;;;;9983216;28;20052;-67
2022/05/18 14:47:52;;;;;;;6.03;2.55;;;;;;;;;;10025238;28;20425;-65
2022/05/18 14:52:59;;;;;;;10.98;2.75;;;;;;;;;;9972338;28;20049;-66
2022/05/18 14:57:58;;;;;;;6.65;3.10;;;;;;;;;;9970137;28;20058;-66
2022/05/18 15:02:57;;;;;;;8.15;2.63;;;;;;;;;;9954864;28;20067;-66
2022/05/18 15:07:56;;;;;;;6.93;2.88;;;;;;;;;;9999542;28;20663;-67
2022/05/18 15:13:03;;;;;;;4.43;2.47;;;;;;;;;;9997435;28;20045;-68
2022/05/18 15:18:14;;;;;;;6.88;2.53;;;;;;;;;;9964987;28;20135;-67
2022/05/18 15:23:18;;;;;;;5.03;2.33;;;;;;;;;;9972142;28;20067;-67
2022/05/18 15:28:18;;;;;;;4.82;2.03;;;;;;;;;;9977505;28;20048;-67
2022/05/18 15:33:15;;;;;;;6.55;2.67;;;;;;;;;;9957940;28;20136;-68
2022/05/18 15:38:13;;;;;;;6.45;2.70;;;;;;;;;;9958474;28;20621;-68
2022/05/18 15:43:09;;;;;;;7.05;1.90;;;;;;;;;;9969787;28;20063;-68
2022/05/18 15:48:06;;;;;;;4.93;2.25;;;;;;;;;;9964639;28;20055;-68
2022/05/18 15:53:04;;;;;;;4.63;2.30;;;;;;;;;;10013240;28;20071;-68
2022/05/18 15:58:00;;;;;;;4.80;2.13;;;;;;;;;;9970716;28;20072;-67
2022/05/18 16:02:57;;;;;;;5.70;2.40;;;;;;;;;;9963240;28;20063;-68
2022/05/18 16:07:56;;;;;;;5.70;2.33;;;;;;;;;;9969565;28;20131;-68
2022/05/18 16:12:55;;;;;;;4.57;2.88;;;;;;;;;;9965974;28;20560;-68
2022/05/18 16:17:52;;;;;;;5.50;2.20;;;;;;;;;;9968711;28;20474;-68
2022/05/18 16:22:49;;;;;;;5.75;2.35;;;;;;;;;;9972221;28;20139;-68
2022/05/18 16:27:45;;;;;;;5.28;2.20;;;;;;;;;;9960837;28;20067;-68
2022/05/18 16:32:42;;;;;;;5.93;2.40;;;;;;;;;;9971712;28;20529;-67
2022/05/18 16:37:38;;;;;;;6.10;2.25;;;;;;;;;;9968133;28;20048;-68
2022/05/18 16:42:35;;;;;;;7.95;2.55;;;;;;;;;;9978328;28;20048;-66
2022/05/18 16:47:31;;;;;;;6.57;2.88;;;;;;;;;;9969405;28;20613;-66
2022/05/18 16:52:28;;;;;;;8.30;3.08;;;;;;;;;;9972426;28;20044;-66
2022/05/18 16:57:29;;;;;;;3.92;2.30;;;;;;;;;;9970748;28;20052;-64
2022/05/18 17:02:26;;;;;;;7.93;2.93;;;;;;;;;;9949224;28;20139;-65
2022/05/18 17:07:23;;;;;;;5.78;2.63;;;;;;;;;;9958253;28;20487;-66
2022/05/18 17:12:19;;;;;;;6.38;3.45;;;;;;;;;;9962171;28;20461;-66
2022/05/18 17:17:18;;;;;;;8.65;3.50;;;;;;;;;;9977350;28;20098;-67
2022/05/18 17:22:15;;;;;;;5.15;3.63;;;;;;;;;;9969598;28;20080;-66
2022/05/18 17:27:20;;;;;;;7.35;4.00;;;;;;;;;;9980620;28;20052;-67
2022/05/18 17:32:18;;;;;;;5.47;3.60;;;;;;;;;;9989577;28;20060;-67
2022/05/18 17:37:16;;;;;;;5.38;3.47;;;;;;;;;;9969333;28;20040;-69
2022/05/18 17:42:12;;;;;;;8.30;4.40;;;;;;;;;;9990399;28;20131;-67
2022/05/18 17:47:10;;;;;;;8.73;4.45;;;;;;;;;;9987562;28;20052;-66
2022/05/18 17:52:08;;;;;;;8.35;4.25;;;;;;;;;;9967382;28;20507;-66
2022/05/18 17:57:04;;;;;;;6.28;3.63;;;;;;;;;;9975643;28;20119;-67
2022/05/18 18:02:02;;;;;;;6.82;4.38;;;;;;;;;;9982391;28;20136;-67
2022/05/18 18:06:59;;;;;;;6.55;4.20;;;;;;;;;;9973031;28;20430;-67
2022/05/18 18:11:56;;;;;;;5.78;3.63;;;;;;;;;;9988207;28;20046;-66
2022/05/18 18:16:53;;;;;;;6.75;3.58;;;;;;;;;;9980946;28;20114;-67
2022/05/18 18:21:50;;;;;;;6.80;3.85;;;;;;;;;;9967601;28;20047;-67
2022/05/18 18:26:46;;;;;;;6.97;3.47;;;;;;;;;;9959255;28;20127;-67
2022/05/18 18:31:42;;;;;;;7.38;4.80;;;;;;;;;;9970937;28;20541;-67
2022/05/18 18:36:42;;;;;;;9.65;4.10;;;;;;;;;;9967346;28;20524;-67
2022/05/18 18:41:41;;;;;;;6.18;4.10;;;;;;;;;;9963515;28;20091;-67
2022/05/18 18:46:38;;;;;;;5.63;4.13;;;;;;;;;;9975564;28;20051;-66
2022/05/18 18:56:53;;;;;;;7.47;4.57;;;;;;;;;;9957720;28;20110;-67
2022/05/18 19:01:49;;;;;;;8.02;4.35;;;;;;;;;;9949056;28;20127;-66
2022/05/18 19:06:55;;;;;;;7.32;4.13;;;;;;;;;;9954827;28;20064;-67
2022/05/18 19:11:52;;;;;;;9.88;5.22;;;;;;;;;;9964961;28;20398;-67
2022/05/18 19:16:49;;;;;;;8.98;4.40;;;;;;;;;;9970505;28;20628;-67
2022/05/18 19:21:46;;;;;;;9.20;4.47;;;;;;;;;;9965323;28;20052;-67
2022/05/18 19:26:43;;;;;;;6.22;3.83;;;;;;;;;;9972440;28;20079;-67
2022/05/18 19:31:39;;;;;;;8.88;4.35;;;;;;;;;;9974693;28;20571;-67
2022/05/18 19:36:36;;;;;;;5.65;4.50;;;;;;;;;;9965505;28;20461;-67
2022/05/18 19:41:32;;;;;;;6.80;4.35;;;;;;;;;;9964390;28;20165;-67
2022/05/18 19:46:29;;;;;;;5.85;4.38;;;;;;;;;;9976001;28;20072;-66
2022/05/18 19:51:26;;;;;;;7.85;4.55;;;;;;;;;;9985937;28;20217;-66
2022/05/18 19:56:24;;;;;;;9.45;4.78;;;;;;;;;;9973852;28;20048;-66
2022/05/18 20:01:20;;;;;;;6.57;4.80;;;;;;;;;;9974892;28;20128;-66
2022/05/18 20:06:18;;;;;;;9.32;4.47;;;;;;;;;;9975359;28;20094;-66
2022/05/18 20:11:14;;;;;;;7.15;4.65;;;;;;;;;;9978745;28;20076;-67
2022/05/18 20:16:11;;;;;;;7.85;5.22;;;;;;;;;;10054654;28;20484;-66
2022/05/18 20:21:08;;;;;;;7.47;4.30;;;;;;;;;;9990263;29;20052;-66
2022/05/18 20:26:07;;;;;;;8.48;4.80;;;;;;;;;;9979682;28;20559;-66
2022/05/18 20:31:03;;;;;;;6.47;4.55;;;;;;;;;;9981460;28;20135;-67
2022/05/18 20:35:59;;;;;;;9.70;4.88;;;;;;;;;;9973356;28;20129;-66
2022/05/18 20:40:56;;;;;;;7.80;5.00;;;;;;;;;;9979660;28;20063;-67
2022/05/18 20:45:52;;;;;;;7.97;4.65;;;;;;;;;;9961700;28;20068;-66
2022/05/18 20:50:49;;;;;;;9.65;5.15;;;;;;;;;;9982366;28;20561;-67
2022/05/18 20:55:47;;;;;;;5.60;4.35;;;;;;;;;;9963285;28;20131;-67
2022/05/18 21:00:43;;;;;;;8.88;4.90;;;;;;;;;;9965952;28;20063;-66
2022/05/18 21:05:40;;;;;;;11.27;4.32;;;;;;;;;;9980610;28;20118;-67
2022/05/18 21:10:38;;;;;;;6.55;4.10;;;;;;;;;;9984999;28;20078;-67
2022/05/18 21:15:36;;;;;;;8.25;4.40;;;;;;;;;;10004034;28;20056;-66
2022/05/18 21:20:32;;;;;;;8.70;4.93;;;;;;;;;;9988777;29;20139;-67
2022/05/18 21:25:29;;;;;;;6.82;4.47;;;;;;;;;;10047979;28;20498;-68
2022/05/18 21:30:27;;;;;;;8.88;4.68;;;;;;;;;;9980664;29;20071;-66
2022/05/18 21:35:24;;;;;;;6.70;4.35;;;;;;;;;;9983604;28;20136;-66
2022/05/18 21:40:21;;;;;;;7.93;4.20;;;;;;;;;;9994626;28;20498;-66
2022/05/18 21:45:20;;;;;;;6.43;4.35;;;;;;;;;;10005384;28;20128;-66
2022/05/18 21:50:17;;;;;;;7.47;4.20;;;;;;;;;;9998332;28;20048;-67
2022/05/18 21:55:14;;;;;;;6.53;4.18;;;;;;;;;;9996652;28;20079;-67
2022/05/18 22:00:14;;;;;;;8.55;4.78;;;;;;;;;;9976063;28;20087;-67
2022/05/18 22:05:10;;;;;;;7.28;4.90;;;;;;;;;;9978263;28;20151;-66
2022/05/18 22:10:06;;;;;;;6.22;4.30;;;;;;;;;;9991884;28;20478;-67
2022/05/18 22:15:03;;;;;;;9.05;4.65;;;;;;;;;;10010861;28;20081;-65
2022/05/18 22:19:59;;;;;;;7.78;4.25;;;;;;;;;;10005603;28;20051;-67
2022/05/18 22:24:55;;;;;;;6.80;3.70;;;;;;;;;;9992849;29;20079;-67
2022/05/18 22:29:59;;;;;;;5.68;4.30;;;;;;;;;;9988132;28;20123;-67
2022/05/18 22:34:56;;;;;;;8.00;4.10;;;;;;;;;;9999420;28;20040;-67
2022/05/18 22:39:52;;;;;;;8.15;4.10;;;;;;;;;;9979155;28;20083;-68
2022/05/18 22:44:49;;;;;;;6.70;4.18;;;;;;;;;;9995004;28;20061;-67
2022/05/18 22:49:45;;;;;;;11.75;4.90;;;;;;;;;;10036504;28;20052;-67
2022/05/18 22:54:42;;;;;;;7.55;3.90;;;;;;;;;;9969813;28;20073;-67
2022/05/18 22:59:38;;;;;;;7.35;4.32;;;;;;;;;;10087393;28;20060;-67
2022/05/18 23:04:35;;;;;;;5.57;3.70;;;;;;;;;;9969858;28;20141;-67
2022/05/18 23:09:33;;;;;;;8.23;4.13;;;;;;;;;;10029838;28;20076;-67
2022/05/18 23:14:30;;;;;;;7.47;3.88;;;;;;;;;;9964765;28;20067;-67
2022/05/18 23:19:26;;;;;;;9.18;4.43;;;;;;;;;;10021811;28;20052;-66
2022/05/18 23:24:23;;;;;;;7.57;4.47;;;;;;;;;;9992843;28;20127;-67
2022/05/18 23:29:19;;;;;;;8.50;4.47;;;;;;;;;;9989347;29;20060;-67
2022/05/18 23:34:16;;;;;;;6.25;3.72;;;;;;;;;;9991830;28;20395;-65
2022/05/18 23:39:12;;;;;;;6.22;3.97;;;;;;;;;;9984578;28;20075;-65
2022/05/18 23:44:08;;;;;;;6.10;3.88;;;;;;;;;;9993896;28;20080;-65
2022/05/18 23:49:06;;;;;;;6.47;4.57;;;;;;;;;;10022164;28;20084;-67
2022/05/18 23:54:09;;;;;;;6.03;3.97;;;;;;;;;;9990577;28;20067;-66
2022/05/18 23:59:15;;;;;;;6.97;3.88;;;;;;;;;;10104090;28;20106;-67
